Time;durP1;ratioP1;P1;durP2;ratioP2;P2;SDS_P1;SDS_P2;PMS_P1;PMS_P2;Temp;Humidity;BMP_temperature;BMP_pressure;BME280_temperature;BME280_humidity;BME280_pressure;Samples;Min_cycle;Max_cycle;Signal;HPM_P1;HPM_P2
2023/11/10 00:00:12;;;;;;;38.88;21.20;;;;;;;4.82;97.82;100744.39;1740005;82;21768;-62
2023/11/10 00:02:45;;;;;;;39.38;22.70;;;;;;;4.80;97.82;100754.05;1740158;82;20984;-63
2023/11/10 00:05:14;;;;;;;49.55;28.98;;;;;;;4.78;97.89;100756.05;1740377;82;20996;-64
2023/11/10 00:07:44;;;;;;;60.28;35.17;;;;;;;4.75;97.91;100761.28;1740047;82;21020;-64
2023/11/10 00:10:13;;;;;;;57.33;31.00;;;;;;;4.74;97.98;100757.36;1740261;82;21081;-63
2023/11/10 00:12:42;;;;;;;71.70;43.85;;;;;;;4.74;98.07;100757.36;1742376;82;21442;-63
2023/11/10 00:15:11;;;;;;;66.57;38.80;;;;;;;4.72;98.07;100753.95;1742416;82;21467;-63
2023/11/10 00:17:40;;;;;;;56.37;35.52;;;;;;;4.72;98.25;100757.52;1742570;82;21055;-62
2023/11/10 00:20:11;;;;;;;60.03;37.08;;;;;;;4.73;98.43;100747.01;1742622;82;21463;-63
2023/11/10 00:22:40;;;;;;;77.27;47.15;;;;;;;4.77;98.62;100750.27;1742552;82;21063;-63
2023/11/10 00:25:11;;;;;;;75.70;46.25;;;;;;;4.75;98.58;100746.36;1742314;82;21044;-63
2023/11/10 00:27:40;;;;;;;69.37;41.02;;;;;;;4.72;98.48;100752.08;1742382;82;21035;-63
2023/11/10 00:30:10;;;;;;;72.12;42.80;;;;;;;4.71;98.45;100759.88;1742383;82;21079;-63
2023/11/10 00:32:39;;;;;;;41.58;23.52;;;;;;;4.70;98.24;100760.88;1742328;82;21063;-63
2023/11/10 00:35:09;;;;;;;44.30;25.55;;;;;;;4.67;98.12;100761.69;1742691;82;21051;-62
2023/11/10 00:37:39;;;;;;;40.12;23.42;;;;;;;4.63;98.12;100760.28;1742396;82;21467;-62
2023/11/10 00:40:09;;;;;;;33.73;19.02;;;;;;;4.61;98.25;100757.72;1742581;82;21620;-63
2023/11/10 00:42:39;;;;;;;32.28;17.82;;;;;;;4.61;98.31;100751.44;1742555;82;21047;-63
2023/11/10 00:45:10;;;;;;;35.90;18.85;;;;;;;4.60;98.42;100760.08;1742516;82;21095;-63
2023/11/10 00:47:40;;;;;;;31.85;18.05;;;;;;;4.60;98.52;100754.65;1742386;82;21274;-63
2023/11/10 00:50:10;;;;;;;34.10;17.52;;;;;;;4.60;98.43;100762.79;1742293;82;21095;-63
2023/11/10 00:56:11;;;;;;;36.70;18.45;;;;;;;4.59;98.24;100758.37;1742392;82;21016;-63
2023/11/10 00:58:40;;;;;;;35.03;18.67;;;;;;;4.56;98.20;100755.95;1742531;82;21008;-64
2023/11/10 01:01:09;;;;;;;41.30;22.52;;;;;;;4.53;98.15;100750.80;1721682;82;21079;-64
2023/11/10 01:03:37;;;;;;;34.63;20.82;;;;;;;4.52;98.18;100757.73;1742584;82;21504;-63
2023/11/10 01:06:06;;;;;;;43.45;22.93;;;;;;;4.50;98.06;100754.31;1742344;82;21101;-63
2023/11/10 01:08:35;;;;;;;44.75;24.55;;;;;;;4.49;97.94;100754.81;1742328;82;21048;-62
2023/11/10 01:11:04;;;;;;;43.80;24.45;;;;;;;4.46;97.83;100752.41;1742397;82;21032;-62
2023/11/10 01:13:37;;;;;;;44.10;25.75;;;;;;;4.44;97.71;100753.05;1742480;82;21035;-63
2023/11/10 01:16:07;;;;;;;45.73;26.05;;;;;;;4.41;97.52;100749.28;1742478;82;21020;-63
2023/11/10 01:18:36;;;;;;;41.48;22.85;;;;;;;4.37;97.48;100760.94;1721804;82;21020;-63
2023/11/10 01:21:05;;;;;;;39.48;23.50;;;;;;;4.37;97.52;100749.23;1742565;82;21055;-63
2023/11/10 01:23:35;;;;;;;36.85;22.13;;;;;;;4.33;97.51;100760.88;1742346;82;21665;-63
2023/11/10 01:26:04;;;;;;;41.58;24.12;;;;;;;4.31;97.54;100762.03;1742333;82;21044;-62
2023/11/10 01:28:33;;;;;;;54.18;32.67;;;;;;;4.27;97.50;100753.34;1742475;82;21019;-63
2023/11/10 01:31:03;;;;;;;57.35;33.42;;;;;;;4.22;97.59;100755.64;1742546;82;21039;-63
2023/11/10 01:33:33;;;;;;;69.58;39.63;;;;;;;4.19;97.67;100756.44;1742658;82;21053;-64
2023/11/10 01:36:01;;;;;;;78.25;43.70;;;;;;;4.15;97.72;100749.09;1742484;82;21549;-63
2023/11/10 01:38:32;;;;;;;83.40;43.08;;;;;;;4.14;97.84;100752.31;1742597;82;20996;-62
2023/11/10 01:41:01;;;;;;;74.58;40.90;;;;;;;4.16;97.83;100747.24;1742618;82;21466;-62
2023/11/10 01:43:31;;;;;;;75.55;43.23;;;;;;;4.13;97.80;100750.60;1742570;82;21079;-62
2023/11/10 01:45:59;;;;;;;80.42;44.03;;;;;;;4.13;97.87;100753.31;1721632;82;21051;-62
2023/11/10 01:48:28;;;;;;;60.55;33.70;;;;;;;4.12;97.76;100752.11;1742295;82;21098;-64
2023/11/10 01:50:57;;;;;;;46.08;26.55;;;;;;;4.05;97.66;100758.63;1742364;82;21106;-64
2023/11/10 01:53:25;;;;;;;45.65;26.68;;;;;;;4.05;97.72;100764.55;1742576;82;21040;-64
2023/11/10 01:55:54;;;;;;;50.50;30.12;;;;;;;4.02;97.63;100760.77;1742315;82;21517;-63
2023/11/10 01:58:22;;;;;;;45.88;26.07;;;;;;;3.99;97.71;100760.56;1742591;82;21012;-62
2023/11/10 02:00:51;;;;;;;44.67;25.30;;;;;;;4.00;97.85;100756.00;1742650;82;21016;-62
2023/11/10 02:03:21;;;;;;;39.98;20.92;;;;;;;4.00;97.85;100764.98;1742332;82;21982;-63
2023/11/10 02:05:50;;;;;;;33.10;18.95;;;;;;;4.01;97.88;100765.84;1742488;82;21077;-64
2023/11/10 02:08:19;;;;;;;31.07;17.70;;;;;;;4.01;97.92;100763.98;1742505;82;21071;-64
2023/11/10 02:10:47;;;;;;;31.40;18.40;;;;;;;4.02;97.96;100761.63;1742328;82;21012;-63
2023/11/10 02:13:20;;;;;;;37.35;19.05;;;;;;;4.04;97.98;100756.91;1740097;82;21091;-63
2023/11/10 02:15:49;;;;;;;36.00;19.92;;;;;;;4.05;98.00;100758.63;1740097;82;21012;-64
2023/11/10 02:18:18;;;;;;;34.13;18.40;;;;;;;4.04;97.70;100757.41;1739892;82;21067;-64
2023/11/10 02:20:46;;;;;;;29.57;18.20;;;;;;;4.00;97.44;100758.20;1719276;82;21016;-62
2023/11/10 02:23:17;;;;;;;37.88;19.92;;;;;;;3.95;97.38;100752.88;1739880;82;21036;-62
2023/11/10 02:25:50;;;;;;;32.35;18.50;;;;;;;3.93;97.40;100756.23;1739918;82;21032;-62
2023/11/10 02:28:16;;;;;;;33.15;18.57;;;;;;;3.89;97.39;100753.42;1739820;82;21103;-63
2023/11/10 02:30:44;;;;;;;27.98;17.27;;;;;;;3.86;97.50;100758.64;1740190;82;21031;-62
2023/11/10 02:33:13;;;;;;;28.85;17.27;;;;;;;3.87;97.57;100759.49;1740219;82;21024;-65
2023/11/10 02:35:42;;;;;;;31.33;17.50;;;;;;;3.87;97.62;100762.20;1740171;82;20976;-63
2023/11/10 02:38:10;;;;;;;31.00;17.98;;;;;;;3.84;97.59;100760.64;1740081;82;21063;-64
2023/11/10 02:40:40;;;;;;;75.25;35.73;;;;;;;3.79;97.42;100760.22;1739650;82;21177;-63
2023/11/10 02:43:08;;;;;;;87.00;41.10;;;;;;;3.76;97.51;100758.66;1740298;82;21044;-62
2023/11/10 02:45:37;;;;;;;85.80;39.78;;;;;;;3.76;97.56;100755.09;1740043;82;21016;-62
2023/11/10 02:48:09;;;;;;;88.90;43.75;;;;;;;3.75;97.55;100757.45;1740064;82;21048;-62
2023/11/10 02:50:38;;;;;;;78.60;37.58;;;;;;;3.70;97.45;100751.11;1740000;82;21531;-62
2023/11/10 02:53:07;;;;;;;62.65;29.82;;;;;;;3.68;97.55;100750.89;1739933;82;21569;-63
2023/11/10 02:55:36;;;;;;;49.58;26.77;;;;;;;3.67;97.40;100758.67;1739938;82;21093;-63
2023/11/10 02:58:05;;;;;;;48.25;24.67;;;;;;;3.63;97.24;100762.67;1739945;82;21036;-62
2023/11/10 03:00:34;;;;;;;41.98;23.35;;;;;;;3.60;97.20;100755.69;1740077;82;21020;-63
2023/11/10 03:03:04;;;;;;;39.40;21.57;;;;;;;3.57;97.27;100752.41;1740144;82;21451;-63
2023/11/10 03:05:34;;;;;;;32.45;18.92;;;;;;;3.53;97.46;100750.98;1739956;82;21068;-63
2023/11/10 03:08:04;;;;;;;34.48;19.27;;;;;;;3.55;97.75;100755.76;1740176;82;21016;-63
2023/11/10 03:10:32;;;;;;;34.75;18.90;;;;;;;3.56;97.82;100749.34;1740071;82;21028;-62
2023/11/10 03:13:02;;;;;;;30.75;17.65;;;;;;;3.57;97.86;100748.34;1739867;82;21052;-63
2023/11/10 03:15:31;;;;;;;37.93;18.92;;;;;;;3.59;97.78;100750.41;1740244;82;21230;-63
2023/11/10 03:17:59;;;;;;;31.15;17.85;;;;;;;3.58;97.67;100748.20;1740313;82;21004;-64
2023/11/10 03:20:28;;;;;;;33.20;18.70;;;;;;;3.55;97.50;100748.48;1740040;82;21043;-62
2023/11/10 03:22:57;;;;;;;31.37;18.50;;;;;;;3.55;97.56;100749.84;1719567;82;21056;-63
2023/11/10 03:25:25;;;;;;;30.15;18.07;;;;;;;3.54;97.58;100752.70;1719727;82;21107;-62
2023/11/10 03:27:55;;;;;;;31.68;17.98;;;;;;;3.51;97.57;100745.70;1719308;82;21210;-63
2023/11/10 03:30:25;;;;;;;32.65;19.92;;;;;;;3.47;97.45;100744.29;1740198;82;21004;-63
2023/11/10 03:32:54;;;;;;;38.67;22.00;;;;;;;3.42;97.43;100737.95;1740240;82;21008;-62
2023/11/10 03:35:22;;;;;;;35.28;21.33;;;;;;;3.42;97.54;100744.72;1740201;82;21027;-63
2023/11/10 03:37:51;;;;;;;28.25;18.40;;;;;;;3.42;97.54;100744.72;1740006;82;21075;-64
2023/11/10 03:40:21;;;;;;;31.00;18.42;;;;;;;3.41;97.49;100743.01;1739979;82;20992;-63
2023/11/10 03:42:51;;;;;;;28.40;16.60;;;;;;;3.40;97.48;100749.42;1740120;82;21012;-64
2023/11/10 03:45:20;;;;;;;27.55;15.32;;;;;;;3.41;97.61;100743.51;1739980;82;21080;-63
2023/11/10 03:47:49;;;;;;;24.30;14.18;;;;;;;3.42;97.65;100743.36;1740059;82;21059;-64
2023/11/10 03:50:19;;;;;;;27.02;15.08;;;;;;;3.46;97.80;100748.00;1740005;82;21058;-63
2023/11/10 03:52:48;;;;;;;26.07;15.00;;;;;;;3.49;98.03;100749.06;1740039;82;21044;-64
2023/11/10 03:55:17;;;;;;;28.40;15.40;;;;;;;3.54;98.22;100748.63;1740044;82;21482;-64
2023/11/10 03:57:46;;;;;;;25.85;15.35;;;;;;;3.55;98.17;100757.11;1739979;82;21428;-63
2023/11/10 04:00:18;;;;;;;30.32;17.00;;;;;;;3.52;98.10;100756.05;1719565;82;21091;-64
2023/11/10 04:02:46;;;;;;;31.15;18.92;;;;;;;3.48;98.01;100755.48;1740241;82;21047;-63
2023/11/10 04:05:15;;;;;;;33.30;20.25;;;;;;;3.44;97.95;100752.70;1719528;82;21064;-63
2023/11/10 04:07:43;;;;;;;42.45;25.70;;;;;;;3.41;98.10;100752.48;1719370;82;21158;-61
2023/11/10 04:10:12;;;;;;;34.35;20.62;;;;;;;3.44;98.18;100752.20;1740357;82;21008;-63
2023/11/10 04:12:41;;;;;;;29.65;18.02;;;;;;;3.44;98.01;100748.64;1739951;82;21011;-63
2023/11/10 04:15:11;;;;;;;28.70;17.70;;;;;;;3.42;97.89;100749.28;1740181;82;21079;-63
2023/11/10 04:17:40;;;;;;;25.75;15.50;;;;;;;3.36;97.77;100739.88;1740143;82;21028;-63
2023/11/10 04:20:10;;;;;;;24.72;14.68;;;;;;;3.37;97.91;100751.56;1740010;82;21036;-63
2023/11/10 04:22:41;;;;;;;28.32;16.90;;;;;;;3.36;97.83;100745.30;1739940;82;21506;-63
2023/11/10 04:25:10;;;;;;;24.98;14.80;;;;;;;3.35;97.93;100751.70;1740149;82;21079;-62
2023/11/10 04:27:41;;;;;;;24.67;15.08;;;;;;;3.37;98.00;100755.63;1740159;82;21045;-63
2023/11/10 04:30:11;;;;;;;23.07;14.38;;;;;;;3.37;98.01;100757.84;1740250;82;21000;-62
2023/11/10 04:32:40;;;;;;;26.17;14.63;;;;;;;3.36;97.95;100756.13;1739995;82;21460;-63
2023/11/10 04:35:12;;;;;;;23.22;14.03;;;;;;;3.35;98.03;100760.33;1739002;82;21080;-64
2023/11/10 04:37:40;;;;;;;22.32;14.60;;;;;;;3.33;97.99;100756.91;1740040;82;21063;-62
2023/11/10 04:40:11;;;;;;;26.68;16.15;;;;;;;3.26;97.75;100759.33;1740241;82;21079;-62
2023/11/10 04:42:40;;;;;;;27.75;16.32;;;;;;;3.20;97.83;100759.87;1739966;82;21040;-63
2023/11/10 04:45:09;;;;;;;33.28;19.75;;;;;;;3.16;97.85;100754.38;1740165;82;21095;-65
2023/11/10 04:47:40;;;;;;;34.67;19.15;;;;;;;3.12;97.86;100761.08;1739703;82;21443;-64
2023/11/10 04:50:10;;;;;;;43.83;24.80;;;;;;;3.08;97.91;100762.35;1740133;82;21031;-63
2023/11/10 04:52:40;;;;;;;35.95;19.85;;;;;;;3.07;98.05;100765.55;1739955;82;21035;-64
2023/11/10 04:55:13;;;;;;;33.50;17.07;;;;;;;3.08;98.20;100764.56;1740021;82;21039;-62
2023/11/10 04:57:42;;;;;;;22.55;13.38;;;;;;;3.11;98.33;100763.42;1740191;82;21051;-62
2023/11/10 05:00:13;;;;;;;41.70;22.75;;;;;;;3.11;98.39;100762.92;1740020;82;21424;-63
2023/11/10 05:02:46;;;;;;;36.58;21.20;;;;;;;3.11;98.49;100761.56;1740218;82;21502;-63
2023/11/10 05:05:13;;;;;;;34.70;20.05;;;;;;;3.10;98.42;100758.50;1739861;82;21048;-63
2023/11/10 05:07:42;;;;;;;36.70;22.05;;;;;;;3.10;98.45;100762.56;1740004;82;21019;-63
2023/11/10 05:10:12;;;;;;;34.18;19.67;;;;;;;3.11;98.51;100771.55;1740004;82;21016;-64
2023/11/10 05:12:41;;;;;;;26.85;15.55;;;;;;;3.11;98.48;100768.84;1720527;82;21095;-63
2023/11/10 05:15:11;;;;;;;22.82;13.18;;;;;;;3.07;98.37;100772.32;1742662;82;21035;-63
2023/11/10 05:17:40;;;;;;;28.45;15.85;;;;;;;3.06;98.52;100771.97;1742352;82;21459;-63
2023/11/10 05:20:10;;;;;;;25.60;14.38;;;;;;;3.10;98.60;100770.69;1742381;82;21324;-64
2023/11/10 05:22:42;;;;;;;29.35;15.88;;;;;;;3.12;98.66;100760.58;1742497;82;21577;-63
2023/11/10 05:25:10;;;;;;;24.67;14.03;;;;;;;3.15;98.77;100762.14;1742285;82;21079;-65
2023/11/10 05:27:42;;;;;;;23.77;12.82;;;;;;;3.18;98.85;100764.56;1742357;82;21577;-63
2023/11/10 05:30:12;;;;;;;23.20;13.20;;;;;;;3.20;98.89;100762.57;1742371;82;21000;-62
2023/11/10 05:32:41;;;;;;;20.95;13.13;;;;;;;3.21;98.83;100768.34;1742267;82;21019;-63
2023/11/10 05:35:10;;;;;;;23.25;12.55;;;;;;;3.23;98.94;100771.77;1742277;82;21178;-64
2023/11/10 05:37:39;;;;;;;24.47;13.15;;;;;;;3.30;98.98;100776.15;1742325;82;21024;-62
2023/11/10 05:40:14;;;;;;;22.05;12.65;;;;;;;3.32;99.06;100780.42;1742566;82;20988;-62
2023/11/10 05:42:43;;;;;;;19.85;12.10;;;;;;;3.33;99.05;100778.08;1742632;82;21055;-63
2023/11/10 05:45:11;;;;;;;24.18;13.55;;;;;;;3.35;99.19;100777.44;1742297;82;21126;-63
2023/11/10 05:47:40;;;;;;;24.37;13.05;;;;;;;3.38;99.32;100782.56;1721656;82;21016;-63
2023/11/10 05:50:09;;;;;;;26.50;15.45;;;;;;;3.40;99.41;100780.58;1742494;82;20988;-64
2023/11/10 05:52:39;;;;;;;25.62;13.88;;;;;;;3.42;99.48;100777.72;1721924;82;21020;-64
2023/11/10 05:55:08;;;;;;;27.52;13.95;;;;;;;3.46;99.66;100784.06;1742476;82;20984;-62
2023/11/10 05:57:37;;;;;;;28.40;14.60;;;;;;;3.48;99.71;100786.13;1742309;82;21020;-62
2023/11/10 06:00:09;;;;;;;32.28;16.32;;;;;;;3.55;99.86;100780.14;1742599;82;21035;-63
2023/11/10 06:02:38;;;;;;;27.32;13.75;;;;;;;3.62;99.97;100774.50;1742268;82;21047;-64
2023/11/10 06:05:10;;;;;;;23.05;12.75;;;;;;;3.68;100.00;100776.64;1742462;82;21020;-62
2023/11/10 06:07:43;;;;;;;26.52;13.58;;;;;;;3.72;100.00;100774.84;1742385;82;21064;-63
2023/11/10 06:10:12;;;;;;;25.62;12.95;;;;;;;3.81;100.00;100773.98;1742598;82;21000;-64
2023/11/10 06:12:42;;;;;;;22.50;12.43;;;;;;;3.87;100.00;100775.25;1742224;82;21068;-64
2023/11/10 06:15:12;;;;;;;21.55;11.63;;;;;;;3.96;100.00;100778.48;1742341;82;21434;-64
2023/11/10 06:17:41;;;;;;;20.20;10.75;;;;;;;4.02;100.00;100777.03;1699163;82;21019;-65
2023/11/10 06:20:10;;;;;;;18.35;10.08;;;;;;;4.07;100.00;100783.73;1742613;82;21067;-63
2023/11/10 06:22:39;;;;;;;18.73;10.65;;;;;;;4.11;100.00;100779.73;1742454;82;21059;-63
2023/11/10 06:25:10;;;;;;;20.08;11.33;;;;;;;4.20;100.00;100781.20;1722021;82;21044;-63
2023/11/10 06:27:39;;;;;;;17.85;10.55;;;;;;;4.26;100.00;100784.17;1742398;82;21012;-63
2023/11/10 06:30:10;;;;;;;19.55;10.93;;;;;;;4.35;100.00;100786.50;1742556;82;21031;-63
2023/11/10 06:32:38;;;;;;;18.98;10.00;;;;;;;4.40;100.00;100774.70;1742583;82;21423;-63
2023/11/10 06:35:09;;;;;;;16.73;9.68;;;;;;;4.48;100.00;100776.17;1742399;82;21299;-64
2023/11/10 06:37:37;;;;;;;21.57;11.15;;;;;;;4.52;100.00;100768.08;1706820;84;21040;-63
2023/11/10 06:40:08;;;;;;;19.82;10.75;;;;;;;4.59;99.93;100774.65;1742504;82;21075;-63
2023/11/10 06:42:37;;;;;;;21.25;9.73;;;;;;;4.65;99.74;100772.69;1742551;82;21078;-64
2023/11/10 06:45:07;;;;;;;16.85;8.80;;;;;;;4.71;99.55;100770.73;1742387;82;21499;-63
2023/11/10 06:47:37;;;;;;;19.48;10.15;;;;;;;4.76;99.37;100758.06;1706955;84;21075;-62
2023/11/10 06:50:07;;;;;;;20.08;10.13;;;;;;;4.82;99.13;100753.89;1742368;82;21031;-63
2023/11/10 06:52:36;;;;;;;18.40;10.18;;;;;;;4.88;98.93;100754.63;1742473;82;21440;-65
2023/11/10 06:55:09;;;;;;;16.70;10.25;;;;;;;4.92;98.62;100756.89;1742386;82;21075;-64
2023/11/10 06:57:37;;;;;;;19.77;9.95;;;;;;;4.96;98.41;100754.22;1742420;82;21020;-64
2023/11/10 07:00:11;;;;;;;19.48;10.23;;;;;;;5.01;98.20;100751.91;1721902;82;21028;-64
2023/11/10 07:02:39;;;;;;;16.77;9.70;;;;;;;5.06;98.01;100744.66;1722590;82;21039;-64
2023/11/10 07:05:09;;;;;;;19.07;9.15;;;;;;;5.12;97.89;100749.97;1742277;82;21517;-64
2023/11/10 07:07:39;;;;;;;18.87;9.60;;;;;;;5.18;97.72;100751.56;1706811;84;21060;-63
2023/11/10 07:10:08;;;;;;;18.00;9.43;;;;;;;5.26;97.64;100759.83;1742335;82;21027;-63
2023/11/10 07:12:38;;;;;;;20.30;9.63;;;;;;;5.34;97.55;100756.34;1742057;82;21052;-64
2023/11/10 07:15:09;;;;;;;20.23;10.15;;;;;;;5.41;97.17;100758.28;1740013;82;21040;-65
2023/11/10 07:17:38;;;;;;;20.32;11.15;;;;;;;5.49;97.00;100748.49;1740032;82;21024;-64
2023/11/10 07:20:14;;;;;;;20.40;9.40;;;;;;;5.57;96.64;100744.48;1740256;82;20988;-63
2023/11/10 07:22:45;;;;;;;19.80;10.20;;;;;;;5.65;96.42;100751.34;1740250;82;21091;-64
2023/11/10 07:25:14;;;;;;;24.67;11.15;;;;;;;5.78;96.39;100744.99;1696457;82;21091;-63
2023/11/10 07:27:43;;;;;;;18.57;9.15;;;;;;;6.01;96.46;100739.45;1740008;82;20988;-62
2023/11/10 07:30:12;;;;;;;18.82;8.98;;;;;;;6.30;95.87;100746.41;1739984;82;21071;-63
2023/11/10 07:32:41;;;;;;;19.90;9.35;;;;;;;6.60;94.29;100740.98;1740232;82;21040;-64
2023/11/10 07:35:11;;;;;;;20.40;9.90;;;;;;;6.93;93.74;100735.13;1740040;82;21036;-64
2023/11/10 07:37:41;;;;;;;20.60;9.33;;;;;;;7.27;92.51;100731.83;1739944;82;21023;-64
2023/11/10 07:40:12;;;;;;;16.35;9.23;;;;;;;7.63;91.14;100731.52;1739971;82;21072;-65
2023/11/10 07:42:45;;;;;;;15.45;9.35;;;;;;;7.91;87.72;100734.25;1739944;82;21075;-64
2023/11/10 07:45:15;;;;;;;19.45;9.98;;;;;;;8.15;86.54;100728.41;1739953;82;21036;-63
2023/11/10 07:47:48;;;;;;;19.65;10.28;;;;;;;8.36;85.05;100727.88;1740215;82;21040;-64
2023/11/10 07:50:19;;;;;;;19.82;9.75;;;;;;;8.52;83.66;100717.78;1740100;82;21035;-68
2023/11/10 07:52:47;;;;;;;18.40;9.55;;;;;;;8.65;82.55;100722.67;1740076;82;21071;-65
2023/11/10 07:55:16;;;;;;;18.02;8.70;;;;;;;8.78;81.45;100725.69;1740187;82;21000;-65
2023/11/10 07:57:47;;;;;;;19.20;9.48;;;;;;;8.92;80.86;100720.49;1740202;82;21016;-62
2023/11/10 08:00:18;;;;;;;19.05;9.35;;;;;;;9.00;80.08;100721.81;1696735;82;21044;-64
2023/11/10 08:02:51;;;;;;;19.10;9.63;;;;;;;9.03;79.49;100716.84;1739927;82;21051;-63
2023/11/10 08:05:20;;;;;;;16.27;9.23;;;;;;;9.08;79.19;100719.88;1740002;82;21420;-64
2023/11/10 08:07:52;;;;;;;15.05;8.53;;;;;;;9.18;78.96;100719.16;1740164;82;21031;-66
2023/11/10 08:10:20;;;;;;;17.23;8.70;;;;;;;9.28;78.51;100719.45;1739914;82;21094;-65
2023/11/10 08:12:49;;;;;;;14.83;8.13;;;;;;;9.35;77.58;100719.05;1739870;82;21075;-65
2023/11/10 08:15:17;;;;;;;17.70;7.60;;;;;;;9.36;77.08;100724.86;1719296;82;21004;-64
2023/11/10 08:17:46;;;;;;;18.02;8.45;;;;;;;9.35;77.25;100719.05;1719380;82;21483;-65
2023/11/10 08:20:16;;;;;;;18.70;8.33;;;;;;;9.38;77.43;100714.59;1740144;82;21039;-65
2023/11/10 08:22:44;;;;;;;10.25;6.35;;;;;;;9.43;77.23;100715.73;1719157;82;21095;-64
2023/11/10 08:25:13;;;;;;;12.93;7.05;;;;;;;9.44;76.48;100716.59;1739906;82;21408;-64
2023/11/10 08:27:44;;;;;;;14.18;7.60;;;;;;;9.41;76.44;100715.07;1740115;82;21005;-63
2023/11/10 08:30:13;;;;;;;14.65;7.28;;;;;;;9.41;76.25;100712.85;1719536;82;21036;-64
2023/11/10 08:32:41;;;;;;;12.68;6.53;;;;;;;9.39;76.28;100705.34;1739909;82;21068;-64
2023/11/10 08:35:10;;;;;;;11.20;6.85;;;;;;;9.38;76.41;100696.81;1739921;82;21075;-64
2023/11/10 08:37:41;;;;;;;7.92;5.00;;;;;;;9.39;76.58;100701.25;1740183;82;21047;-63
2023/11/10 08:40:11;;;;;;;7.53;4.60;;;;;;;9.38;76.00;100695.44;1719713;82;21126;-64
2023/11/10 08:42:41;;;;;;;6.70;4.42;;;;;;;9.37;75.88;100700.58;1739945;82;21043;-63
2023/11/10 08:45:14;;;;;;;7.28;4.67;;;;;;;9.37;75.65;100701.95;1739954;82;21052;-63
2023/11/10 08:47:42;;;;;;;8.38;4.42;;;;;;;9.36;75.58;100709.30;1740123;82;21056;-63
2023/11/10 08:50:11;;;;;;;8.23;3.75;;;;;;;9.37;75.33;100686.39;1719290;82;21028;-65
2023/11/10 08:52:41;;;;;;;6.72;3.87;;;;;;;9.40;75.40;100690.64;1739423;81;21050;-67
2023/11/10 08:55:13;;;;;;;8.23;3.87;;;;;;;9.44;75.11;100689.24;1748192;81;21023;-64
2023/11/10 08:57:46;;;;;;;5.62;3.80;;;;;;;9.49;75.12;100693.64;1682456;84;20989;-65
2023/11/10 09:00:17;;;;;;;6.60;4.03;;;;;;;9.54;75.01;100679.75;1739734;82;21113;-64
2023/11/10 09:02:49;;;;;;;5.97;3.70;;;;;;;9.63;74.67;100676.42;1739272;81;21124;-64
2023/11/10 09:05:19;;;;;;;5.50;3.98;;;;;;;9.71;75.38;100664.03;1770226;81;21039;-64
2023/11/10 09:07:47;;;;;;;8.28;5.62;;;;;;;9.80;74.76;100673.05;1749233;81;21475;-66
2023/11/10 09:10:18;;;;;;;7.90;3.80;;;;;;;9.87;74.70;100659.47;1762913;81;21518;-63
2023/11/10 09:12:48;;;;;;;6.15;4.17;;;;;;;9.90;74.34;100659.94;1739867;82;21083;-64
2023/11/10 09:15:18;;;;;;;10.68;5.70;;;;;;;9.96;74.19;100658.34;1739748;82;21044;-65
2023/11/10 09:17:49;;;;;;;8.15;3.65;;;;;;;10.00;73.88;100655.04;1676690;85;21065;-63
2023/11/10 09:20:17;;;;;;;8.70;3.87;;;;;;;10.02;73.61;100644.75;1739408;82;21087;-65
2023/11/10 09:22:47;;;;;;;7.12;4.28;;;;;;;10.04;73.55;100639.09;1739721;82;21008;-64
2023/11/10 09:25:20;;;;;;;6.15;4.20;;;;;;;10.08;73.33;100644.52;1676411;84;21512;-64
2023/11/10 09:27:49;;;;;;;8.75;5.17;;;;;;;10.09;73.16;100651.69;1739743;82;21033;-66
2023/11/10 09:30:17;;;;;;;6.42;4.15;;;;;;;10.10;73.28;100647.40;1739720;82;21559;-64
2023/11/10 09:32:46;;;;;;;5.95;4.00;;;;;;;10.12;73.30;100645.84;1739985;82;21069;-66
2023/11/10 09:35:16;;;;;;;6.40;3.87;;;;;;;10.17;73.31;100643.38;1739847;82;21028;-64
2023/11/10 09:37:48;;;;;;;6.35;3.52;;;;;;;10.20;72.74;100644.41;1740078;82;21054;-65
2023/11/10 09:40:19;;;;;;;8.65;4.10;;;;;;;10.25;72.73;100638.36;1740060;82;21598;-64
2023/11/10 09:42:48;;;;;;;7.67;4.03;;;;;;;10.28;72.36;100631.98;1740051;82;21104;-64
2023/11/10 09:45:17;;;;;;;6.35;4.00;;;;;;;10.32;72.37;100631.93;1739694;82;21142;-67
2023/11/10 09:47:50;;;;;;;8.48;4.20;;;;;;;10.36;72.09;100629.66;1739811;82;21069;-65
2023/11/10 09:50:19;;;;;;;6.33;3.92;;;;;;;10.39;72.06;100619.69;1739817;82;21065;-65
2023/11/10 09:52:49;;;;;;;6.92;3.20;;;;;;;10.43;71.76;100627.89;1739738;82;21053;-65
2023/11/10 09:55:17;;;;;;;6.20;3.33;;;;;;;10.46;71.42;100625.62;1739786;82;21006;-66
2023/11/10 09:57:51;;;;;;;5.87;2.77;;;;;;;10.51;71.30;100622.30;1739860;82;21017;-66
2023/11/10 10:00:22;;;;;;;5.62;3.20;;;;;;;10.55;71.16;100614.55;1740040;82;21097;-64
2023/11/10 10:02:50;;;;;;;6.33;4.22;;;;;;;10.59;70.56;100613.12;1764243;81;21060;-65
2023/11/10 10:05:20;;;;;;;8.30;4.90;;;;;;;10.60;70.25;100603.34;1770366;81;21068;-64
2023/11/10 10:07:49;;;;;;;8.78;5.22;;;;;;;10.63;70.22;100608.95;1770051;81;21036;-65
2023/11/10 10:10:22;;;;;;;5.87;3.77;;;;;;;10.64;69.89;100603.28;1770254;81;21477;-65
2023/11/10 10:12:51;;;;;;;5.25;3.40;;;;;;;10.66;70.12;100597.60;1770477;81;21044;-64
2023/11/10 10:15:31;;;;;;;5.12;3.00;;;;;;;10.67;69.71;100595.19;1772304;81;21600;-64
2023/11/10 10:18:09;;;;;;;6.15;3.17;;;;;;;10.68;69.60;100595.52;1751432;81;21079;-65
2023/11/10 10:20:42;;;;;;;7.90;3.90;;;;;;;10.68;69.38;100592.26;1706532;84;21048;-65
2023/11/10 10:23:15;;;;;;;7.60;3.80;;;;;;;10.68;69.59;100581.81;1772768;81;21666;-64
2023/11/10 10:25:40;;;;;;;7.85;3.85;;;;;;;10.68;69.76;100585.92;1772137;81;21032;-65
2023/11/10 10:28:09;;;;;;;9.65;5.28;;;;;;;10.66;69.62;100577.91;1751583;81;21203;-64
2023/11/10 10:30:39;;;;;;;7.83;3.85;;;;;;;10.69;70.12;100577.52;1664464;84;21487;-64
2023/11/10 10:33:09;;;;;;;5.00;3.27;;;;;;;10.69;70.06;100575.30;1727448;81;21099;-65
2023/11/10 10:35:39;;;;;;;6.97;3.72;;;;;;;10.70;69.95;100572.36;1772665;81;21040;-65
2023/11/10 10:38:09;;;;;;;7.80;4.03;;;;;;;10.72;70.00;100570.80;1772672;81;21829;-65
2023/11/10 10:40:39;;;;;;;5.50;3.10;;;;;;;10.74;70.04;100579.67;1772572;81;21011;-65
2023/11/10 10:43:07;;;;;;;5.05;3.02;;;;;;;10.76;69.64;100562.51;1706453;84;21095;-64
2023/11/10 10:45:39;;;;;;;6.90;3.05;;;;;;;10.79;69.67;100558.86;1772817;80;21044;-65
2023/11/10 10:48:08;;;;;;;6.72;4.17;;;;;;;10.80;69.68;100558.33;1706521;84;21056;-66
2023/11/10 10:50:37;;;;;;;8.48;3.20;;;;;;;10.82;69.67;100569.95;1751499;81;21463;-65
2023/11/10 10:53:10;;;;;;;5.33;3.02;;;;;;;10.86;69.07;100555.33;1773038;81;21024;-66
2023/11/10 10:55:39;;;;;;;5.40;2.75;;;;;;;10.89;68.74;100557.16;1772816;81;21444;-66
2023/11/10 10:58:11;;;;;;;7.83;2.87;;;;;;;10.92;68.73;100543.58;1706659;84;21056;-65
2023/11/10 11:00:39;;;;;;;3.35;2.62;;;;;;;10.96;68.62;100555.33;1772603;80;21075;-65
2023/11/10 11:03:51;;;;;;;4.15;2.92;;;;;;;10.99;68.89;100542.59;1680492;84;21061;-65
2023/11/10 11:06:41;;;;;;;4.40;2.80;;;;;;;11.02;68.61;100537.24;1742360;82;21075;-64
2023/11/10 11:09:24;;;;;;;4.90;2.60;;;;;;;11.06;68.56;100540.80;1742147;82;21459;-65
2023/11/10 11:12:34;;;;;;;4.65;2.65;;;;;;;11.09;68.28;100541.77;1741492;82;20997;-67
2023/11/10 11:15:19;;;;;;;5.20;2.33;;;;;;;11.14;67.08;100541.18;1742300;82;21510;-66
2023/11/10 11:18:06;;;;;;;3.65;2.10;;;;;;;11.18;66.36;100544.38;1742877;82;21080;-66
2023/11/10 11:20:35;;;;;;;5.67;2.77;;;;;;;11.20;66.75;100548.61;1739191;82;21060;-65
2023/11/10 11:23:06;;;;;;;5.10;2.58;;;;;;;11.25;66.66;100534.30;1743249;82;21027;-66
2023/11/10 11:25:37;;;;;;;3.90;2.70;;;;;;;11.27;66.28;100541.28;1714791;82;21604;-65
2023/11/10 11:28:06;;;;;;;3.60;2.65;;;;;;;11.29;66.46;100545.20;1714074;82;21086;-65
2023/11/10 11:30:37;;;;;;;6.72;2.72;;;;;;;11.31;65.79;100542.58;1742849;82;21016;-65
2023/11/10 11:33:12;;;;;;;5.72;2.90;;;;;;;11.32;65.26;100542.06;1742796;82;21027;-65
2023/11/10 11:35:47;;;;;;;5.65;3.02;;;;;;;11.30;65.40;100541.41;1742766;82;21492;-66